sensor_id;sensor_type;location;lat;lon;timestamp;pressure;altitude;pressure_sealevel;temperature;humidity
47104;BME280;32853;52.164;5.400;2024-01-27T00:01:24;103111.75;;;5.38;100.00
47104;BME280;32853;52.164;5.400;2024-01-27T00:03:49;103001.44;;;4.65;100.00
47104;BME280;32853;52.164;5.400;2024-01-27T00:06:21;103258.16;;;5.95;100.00
47104;BME280;32853;52.164;5.400;2024-01-27T00:08:47;103239.91;;;5.90;100.00
47104;BME280;32853;52.164;5.400;2024-01-27T00:11:17;103016.31;;;4.31;100.00
47104;BME280;32853;52.164;5.400;2024-01-27T00:13:46;102966.63;;;4.08;100.00
47104;BME280;32853;52.164;5.400;2024-01-27T00:16:13;103357.47;;;6.25;100.00
47104;BME280;32853;52.164;5.400;2024-01-27T00:18:49;103084.47;;;4.68;100.00
47104;BME280;32853;52.164;5.400;2024-01-27T00:21:15;103096.31;;;4.57;100.00
47104;BME280;32853;52.164;5.400;2024-01-27T00:23:57;103356.47;;;6.20;100.00
47104;BME280;32853;52.164;5.400;2024-01-27T00:26:26;103361.44;;;6.08;100.00
47104;BME280;32853;52.164;5.400;2024-01-27T00:29:00;103347.66;;;6.10;100.00
47104;BME280;32853;52.164;5.400;2024-01-27T00:31:26;102989.81;;;4.02;100.00
47104;BME280;32853;52.164;5.400;2024-01-27T00:33:58;103023.16;;;4.28;100.00
47104;BME280;32853;52.164;5.400;2024-01-27T00:36:25;102968.97;;;3.96;100.00
47104;BME280;32853;52.164;5.400;2024-01-27T00:38:51;103176.00;;;5.08;100.00
47104;BME280;32853;52.164;5.400;2024-01-27T00:41:18;103155.91;;;4.97;100.00
47104;BME280;32853;52.164;5.400;2024-01-27T00:43:46;103012.91;;;4.32;100.00
47104;BME280;32853;52.164;5.400;2024-01-27T00:46:12;103067.63;;;4.48;100.00
47104;BME280;32853;52.164;5.400;2024-01-27T00:48:37;103014.69;;;4.35;100.00
47104;BME280;32853;52.164;5.400;2024-01-27T00:51:03;103033.63;;;4.32;100.00
47104;BME280;32853;52.164;5.400;2024-01-27T00:53:31;103060.47;;;4.36;100.00
47104;BME280;32853;52.164;5.400;2024-01-27T00:55:57;103015.03;;;4.11;100.00
47104;BME280;32853;52.164;5.400;2024-01-27T00:58:25;103152.31;;;4.89;100.00
47104;BME280;32853;52.164;5.400;2024-01-27T01:00:56;102981.84;;;3.93;100.00
47104;BME280;32853;52.164;5.400;2024-01-27T01:03:21;103031.59;;;4.19;100.00
47104;BME280;32853;52.164;5.400;2024-01-27T01:05:47;103138.31;;;4.81;100.00
47104;BME280;32853;52.164;5.400;2024-01-27T01:08:13;103342.22;;;5.98;100.00
47104;BME280;32853;52.164;5.400;2024-01-27T01:10:42;102965.41;;;3.54;100.00
47104;BME280;32853;52.164;5.400;2024-01-27T01:13:08;103148.53;;;4.75;100.00
47104;BME280;32853;52.164;5.400;2024-01-27T01:15:59;103356.09;;;5.99;100.00
47104;BME280;32853;52.164;5.400;2024-01-27T01:18:25;103370.69;;;5.94;100.00
47104;BME280;32853;52.164;5.400;2024-01-27T01:20:50;103355.16;;;5.95;100.00
47104;BME280;32853;52.164;5.400;2024-01-27T01:23:19;103356.00;;;5.94;100.00
47104;BME280;32853;52.164;5.400;2024-01-27T01:25:50;103211.00;;;4.87;100.00
47104;BME280;32853;52.164;5.400;2024-01-27T01:28:25;103222.84;;;5.15;100.00
47104;BME280;32853;52.164;5.400;2024-01-27T01:31:00;103135.06;;;4.52;100.00
47104;BME280;32853;52.164;5.400;2024-01-27T01:33:31;103360.25;;;5.91;100.00
47104;BME280;32853;52.164;5.400;2024-01-27T01:35:56;103069.75;;;4.26;100.00
47104;BME280;32853;52.164;5.400;2024-01-27T01:38:30;103352.66;;;6.00;100.00
47104;BME280;32853;52.164;5.400;2024-01-27T01:41:06;103210.50;;;5.04;100.00
47104;BME280;32853;52.164;5.400;2024-01-27T01:43:38;103345.34;;;5.82;100.00
47104;BME280;32853;52.164;5.400;2024-01-27T01:46:06;103368.78;;;5.87;100.00
47104;BME280;32853;52.164;5.400;2024-01-27T01:48:36;103148.28;;;4.64;100.00
47104;BME280;32853;52.164;5.400;2024-01-27T01:51:04;103309.53;;;5.66;100.00
47104;BME280;32853;52.164;5.400;2024-01-27T01:53:41;103154.66;;;4.77;100.00
47104;BME280;32853;52.164;5.400;2024-01-27T01:56:17;103005.78;;;3.83;100.00
47104;BME280;32853;52.164;5.400;2024-01-27T01:58:51;103227.84;;;5.06;100.00
47104;BME280;32853;52.164;5.400;2024-01-27T02:01:42;103049.09;;;3.90;100.00
47104;BME280;32853;52.164;5.400;2024-01-27T02:04:26;103049.16;;;3.93;100.00
47104;BME280;32853;52.164;5.400;2024-01-27T02:07:05;102997.75;;;3.72;100.00
47104;BME280;32853;52.164;5.400;2024-01-27T02:09:31;103040.59;;;3.97;100.00
47104;BME280;32853;52.164;5.400;2024-01-27T02:12:36;103362.31;;;6.08;100.00
47104;BME280;32853;52.164;5.400;2024-01-27T02:15:25;102972.63;;;3.67;100.00
47104;BME280;32853;52.164;5.400;2024-01-27T02:18:07;103054.69;;;4.10;100.00
47104;BME280;32853;52.164;5.400;2024-01-27T02:21:10;103072.09;;;4.16;100.00
47104;BME280;32853;52.164;5.400;2024-01-27T02:23:41;103321.53;;;5.61;100.00
47104;BME280;32853;52.164;5.400;2024-01-27T02:26:23;103053.31;;;3.87;100.00
47104;BME280;32853;52.164;5.400;2024-01-27T02:29:21;103362.78;;;5.88;100.00
47104;BME280;32853;52.164;5.400;2024-01-27T02:32:15;103031.53;;;3.77;100.00
47104;BME280;32853;52.164;5.400;2024-01-27T02:35:08;102992.00;;;3.46;100.00
47104;BME280;32853;52.164;5.400;2024-01-27T02:37:48;103047.72;;;3.68;100.00
47104;BME280;32853;52.164;5.400;2024-01-27T03:01:32;103046.63;;;3.96;100.00
47104;BME280;32853;52.164;5.400;2024-01-27T03:04:07;103074.59;;;4.11;100.00
47104;BME280;32853;52.164;5.400;2024-01-27T03:10:07;103067.59;;;4.07;100.00
47104;BME280;32853;52.164;5.400;2024-01-27T03:12:49;103153.53;;;4.66;100.00
47104;BME280;32853;52.164;5.400;2024-01-27T03:15:43;103214.34;;;4.82;100.00
47104;BME280;32853;52.164;5.400;2024-01-27T03:18:33;103027.28;;;3.81;100.00
47104;BME280;32853;52.164;5.400;2024-01-27T03:21:11;103388.00;;;5.93;100.00
47104;BME280;32853;52.164;5.400;2024-01-27T03:24:19;103183.91;;;4.73;100.00
47104;BME280;32853;52.164;5.400;2024-01-27T03:26:59;103363.56;;;5.85;100.00
47104;BME280;32853;52.164;5.400;2024-01-27T03:33:01;102977.94;;;3.35;100.00
47104;BME280;32853;52.164;5.400;2024-01-27T03:35:58;102970.66;;;3.55;100.00
47104;BME280;32853;52.164;5.400;2024-01-27T03:38:58;103366.06;;;5.79;100.00
47104;BME280;32853;52.164;5.400;2024-01-27T03:48:38;103365.16;;;5.77;100.00
47104;BME280;32853;52.164;5.400;2024-01-27T03:51:23;103359.75;;;5.68;100.00
47104;BME280;32853;52.164;5.400;2024-01-27T04:08:49;103380.34;;;5.60;100.00
47104;BME280;32853;52.164;5.400;2024-01-27T04:11:42;103340.97;;;5.39;100.00
47104;BME280;32853;52.164;5.400;2024-01-27T04:17:52;103377.69;;;5.56;100.00
47104;BME280;32853;52.164;5.400;2024-01-27T04:24:05;103281.22;;;4.96;100.00
47104;BME280;32853;52.164;5.400;2024-01-27T04:27:00;103384.81;;;5.66;100.00
47104;BME280;32853;52.164;5.400;2024-01-27T04:29:42;103321.69;;;5.28;100.00
47104;BME280;32853;52.164;5.400;2024-01-27T04:32:10;103198.84;;;4.46;100.00
47104;BME280;32853;52.164;5.400;2024-01-27T04:34:52;103211.41;;;4.29;100.00
47104;BME280;32853;52.164;5.400;2024-01-27T04:37:30;103381.06;;;5.53;100.00
47104;BME280;32853;52.164;5.400;2024-01-27T04:40:05;103400.94;;;5.52;100.00
47104;BME280;32853;52.164;5.400;2024-01-27T04:42:42;102972.00;;;3.05;100.00
47104;BME280;32853;52.164;5.400;2024-01-27T04:45:14;103050.75;;;3.52;100.00
47104;BME280;32853;52.164;5.400;2024-01-27T04:47:48;103304.72;;;5.03;100.00
47104;BME280;32853;52.164;5.400;2024-01-27T04:50:19;103064.91;;;3.66;100.00
47104;BME280;32853;52.164;5.400;2024-01-27T04:52:57;103318.84;;;5.15;100.00
47104;BME280;32853;52.164;5.400;2024-01-27T04:55:32;103389.59;;;5.47;100.00
47104;BME280;32853;52.164;5.400;2024-01-27T04:58:10;103388.19;;;5.62;100.00
47104;BME280;32853;52.164;5.400;2024-01-27T05:00:38;103021.03;;;3.35;100.00
47104;BME280;32853;52.164;5.400;2024-01-27T05:03:18;103052.72;;;3.62;100.00
47104;BME280;32853;52.164;5.400;2024-01-27T05:05:47;103019.28;;;3.34;100.00
47104;BME280;32853;52.164;5.400;2024-01-27T05:08:27;103015.94;;;3.39;100.00
47104;BME280;32853;52.164;5.400;2024-01-27T05:11:09;103009.25;;;3.47;100.00
47104;BME280;32853;52.164;5.400;2024-01-27T05:13:36;103089.63;;;3.90;100.00
47104;BME280;32853;52.164;5.400;2024-01-27T05:16:35;103384.09;;;5.73;100.00
47104;BME280;32853;52.164;5.400;2024-01-27T05:19:06;103049.53;;;3.72;100.00
47104;BME280;32853;52.164;5.400;2024-01-27T05:21:49;103069.44;;;3.76;100.00
47104;BME280;32853;52.164;5.400;2024-01-27T05:24:17;103353.25;;;5.46;100.00
47104;BME280;32853;52.164;5.400;2024-01-27T05:26:48;103040.69;;;3.64;100.00
47104;BME280;32853;52.164;5.400;2024-01-27T05:29:25;103368.34;;;5.65;100.00
47104;BME280;32853;52.164;5.400;2024-01-27T05:32:07;103020.09;;;3.67;100.00
47104;BME280;32853;52.164;5.400;2024-01-27T05:34:38;102995.13;;;3.33;100.00
47104;BME280;32853;52.164;5.400;2024-01-27T05:37:09;103248.84;;;4.78;100.00
47104;BME280;32853;52.164;5.400;2024-01-27T05:53:29;103032.44;;;3.79;100.00
47104;BME280;32853;52.164;5.400;2024-01-27T05:57:01;103366.03;;;5.77;100.00
47104;BME280;32853;52.164;5.400;2024-01-27T06:04:23;103360.72;;;5.73;100.00
47104;BME280;32853;52.164;5.400;2024-01-27T06:07:57;103366.44;;;5.57;100.00
47104;BME280;32853;52.164;5.400;2024-01-27T06:14:32;103069.53;;;3.79;100.00
47104;BME280;32853;52.164;5.400;2024-01-27T06:17:58;103160.00;;;4.46;100.00
47104;BME280;32853;52.164;5.400;2024-01-27T06:21:43;103401.31;;;5.68;100.00
47104;BME280;32853;52.164;5.400;2024-01-27T06:25:07;103309.34;;;5.17;100.00
47104;BME280;32853;52.164;5.400;2024-01-27T06:27:52;103057.22;;;3.69;100.00
47104;BME280;32853;52.164;5.400;2024-01-27T06:31:09;103367.69;;;5.75;100.00
47104;BME280;32853;52.164;5.400;2024-01-27T06:33:59;103395.44;;;5.76;100.00
47104;BME280;32853;52.164;5.400;2024-01-27T06:36:43;103403.06;;;5.69;100.00
47104;BME280;32853;52.164;5.400;2024-01-27T06:39:41;103330.63;;;5.40;100.00
47104;BME280;32853;52.164;5.400;2024-01-27T06:42:22;103318.22;;;5.27;100.00
47104;BME280;32853;52.164;5.400;2024-01-27T06:45:27;103389.03;;;5.61;100.00
47104;BME280;32853;52.164;5.400;2024-01-27T06:48:15;103063.53;;;3.46;100.00
47104;BME280;32853;52.164;5.400;2024-01-27T06:50:53;103160.38;;;4.25;100.00
47104;BME280;32853;52.164;5.400;2024-01-27T06:53:27;103147.53;;;4.31;100.00
47104;BME280;32853;52.164;5.400;2024-01-27T06:56:10;103340.78;;;5.31;100.00
47104;BME280;32853;52.164;5.400;2024-01-27T06:58:46;102990.22;;;3.44;100.00
47104;BME280;32853;52.164;5.400;2024-01-27T07:01:12;103271.66;;;4.94;100.00
47104;BME280;32853;52.164;5.400;2024-01-27T07:03:42;103376.03;;;5.61;100.00
47104;BME280;32853;52.164;5.400;2024-01-27T07:06:36;103379.63;;;5.66;100.00
47104;BME280;32853;52.164;5.400;2024-01-27T07:09:13;103274.81;;;4.81;100.00
47104;BME280;32853;52.164;5.400;2024-01-27T07:12:01;103406.13;;;5.51;100.00
47104;BME280;32853;52.164;5.400;2024-01-27T07:17:26;103426.34;;;5.28;100.00
47104;BME280;32853;52.164;5.400;2024-01-27T07:19:55;103421.09;;;5.25;100.00
47104;BME280;32853;52.164;5.400;2024-01-27T07:22:29;103340.63;;;4.86;100.00
47104;BME280;32853;52.164;5.400;2024-01-27T07:25:06;103309.94;;;4.66;100.00
47104;BME280;32853;52.164;5.400;2024-01-27T07:27:54;103347.69;;;4.91;100.00
47104;BME280;32853;52.164;5.400;2024-01-27T07:30:32;103405.63;;;5.30;100.00
47104;BME280;32853;52.164;5.400;2024-01-27T07:33:07;103217.66;;;4.02;100.00
47104;BME280;32853;52.164;5.400;2024-01-27T07:35:51;103210.78;;;4.03;100.00
47104;BME280;32853;52.164;5.400;2024-01-27T07:38:32;103285.66;;;4.28;100.00
47104;BME280;32853;52.164;5.400;2024-01-27T07:41:09;103289.44;;;4.43;100.00
47104;BME280;32853;52.164;5.400;2024-01-27T07:43:37;103300.50;;;4.35;100.00
47104;BME280;32853;52.164;5.400;2024-01-27T07:46:15;103345.34;;;4.66;100.00
47104;BME280;32853;52.164;5.400;2024-01-27T07:48:51;103353.19;;;4.69;100.00
47104;BME280;32853;52.164;5.400;2024-01-27T07:51:23;103214.81;;;3.92;100.00
47104;BME280;32853;52.164;5.400;2024-01-27T07:53:54;103292.25;;;4.17;100.00
47104;BME280;32853;52.164;5.400;2024-01-27T07:56:32;103081.22;;;2.98;100.00
47104;BME280;32853;52.164;5.400;2024-01-27T07:58:58;103151.09;;;3.32;100.00
47104;BME280;32853;52.164;5.400;2024-01-27T08:01:34;103155.50;;;3.35;100.00
47104;BME280;32853;52.164;5.400;2024-01-27T08:04:07;103428.56;;;5.11;100.00
47104;BME280;32853;52.164;5.400;2024-01-27T08:06:56;103082.63;;;2.86;100.00
47104;BME280;32853;52.164;5.400;2024-01-27T08:09:31;103116.53;;;2.97;100.00
47104;BME280;32853;52.164;5.400;2024-01-27T08:12:04;103118.25;;;2.97;100.00
47104;BME280;32853;52.164;5.400;2024-01-27T08:14:35;103094.72;;;2.87;100.00
47104;BME280;32853;52.164;5.400;2024-01-27T08:17:00;103201.09;;;3.63;100.00
47104;BME280;32853;52.164;5.400;2024-01-27T08:19:26;103438.56;;;4.97;100.00
47104;BME280;32853;52.164;5.400;2024-01-27T08:21:52;103443.81;;;4.99;100.00
47104;BME280;32853;52.164;5.400;2024-01-27T08:24:17;103455.19;;;5.04;100.00
47104;BME280;32853;52.164;5.400;2024-01-27T08:26:45;103460.38;;;5.04;100.00
47104;BME280;32853;52.164;5.400;2024-01-27T08:29:13;103391.91;;;4.63;100.00
47104;BME280;32853;52.164;5.400;2024-01-27T08:31:53;103137.78;;;3.17;100.00
47104;BME280;32853;52.164;5.400;2024-01-27T08:34:24;103440.69;;;5.12;100.00
47104;BME280;32853;52.164;5.400;2024-01-27T08:36:50;103467.34;;;5.07;100.00
47104;BME280;32853;52.164;5.400;2024-01-27T08:39:15;103229.41;;;3.90;100.00
47104;BME280;32853;52.164;5.400;2024-01-27T08:41:41;103274.81;;;4.10;100.00
47104;BME280;32853;52.164;5.400;2024-01-27T08:44:09;103436.63;;;5.23;100.00
47104;BME280;32853;52.164;5.400;2024-01-27T08:46:34;103245.44;;;4.09;100.00
47104;BME280;32853;52.164;5.400;2024-01-27T08:49:02;103454.88;;;5.28;100.00
47104;BME280;32853;52.164;5.400;2024-01-27T08:51:27;103268.25;;;4.23;100.00
47104;BME280;32853;52.164;5.400;2024-01-27T08:53:53;103318.81;;;4.43;100.00
47104;BME280;32853;52.164;5.400;2024-01-27T08:56:18;103462.66;;;5.28;100.00
47104;BME280;32853;52.164;5.400;2024-01-27T08:58:46;103229.00;;;4.07;100.00
47104;BME280;32853;52.164;5.400;2024-01-27T09:01:18;103346.31;;;4.71;100.00
47104;BME280;32853;52.164;5.400;2024-01-27T09:03:47;103384.34;;;5.07;100.00
47104;BME280;32853;52.164;5.400;2024-01-27T09:06:29;103463.41;;;5.59;100.00
47104;BME280;32853;52.164;5.400;2024-01-27T09:09:00;103455.69;;;5.62;100.00
47104;BME280;32853;52.164;5.400;2024-01-27T09:11:26;103449.88;;;5.73;100.00
47104;BME280;32853;52.164;5.400;2024-01-27T09:14:03;103445.72;;;5.81;100.00
47104;BME280;32853;52.164;5.400;2024-01-27T09:16:30;103444.19;;;5.90;100.00
47104;BME280;32853;52.164;5.400;2024-01-27T09:18:55;103472.88;;;5.94;100.00
47104;BME280;32853;52.164;5.400;2024-01-27T09:21:26;103243.47;;;4.70;100.00
47104;BME280;32853;52.164;5.400;2024-01-27T09:23:54;103170.44;;;4.13;100.00
47104;BME280;32853;52.164;5.400;2024-01-27T09:26:23;103126.16;;;4.02;100.00
47104;BME280;32853;52.164;5.400;2024-01-27T09:28:57;103337.88;;;5.55;100.00
47104;BME280;32853;52.164;5.400;2024-01-27T09:31:27;103152.84;;;4.35;100.00
47104;BME280;32853;52.164;5.400;2024-01-27T09:33:56;103415.88;;;6.00;100.00
47104;BME280;32853;52.164;5.400;2024-01-27T09:36:27;103150.63;;;4.52;100.00
47104;BME280;32853;52.164;5.400;2024-01-27T09:38:58;103155.13;;;4.61;100.00
47104;BME280;32853;52.164;5.400;2024-01-27T09:41:34;103415.31;;;6.17;100.00
47104;BME280;32853;52.164;5.400;2024-01-27T09:44:03;103149.34;;;4.33;100.00
47104;BME280;32853;52.164;5.400;2024-01-27T09:46:31;103486.84;;;6.41;100.00
47104;BME280;32853;52.164;5.400;2024-01-27T09:49:03;103440.16;;;6.02;100.00
47104;BME280;32853;52.164;5.400;2024-01-27T09:51:32;103498.03;;;6.37;100.00
47104;BME280;32853;52.164;5.400;2024-01-27T09:54:00;103388.38;;;5.71;100.00
47104;BME280;32853;52.164;5.400;2024-01-27T09:56:26;103205.88;;;4.51;100.00
47104;BME280;32853;52.164;5.400;2024-01-27T09:58:53;103318.53;;;5.42;100.00
47104;BME280;32853;52.164;5.400;2024-01-27T10:01:21;103507.19;;;6.62;100.00
47104;BME280;32853;52.164;5.400;2024-01-27T10:03:54;103544.66;;;6.74;100.00
47104;BME280;32853;52.164;5.400;2024-01-27T10:06:20;103307.44;;;5.48;100.00
47104;BME280;32853;52.164;5.400;2024-01-27T10:08:53;103225.25;;;5.06;100.00
47104;BME280;32853;52.164;5.400;2024-01-27T10:11:25;103418.84;;;6.20;100.00
47104;BME280;32853;52.164;5.400;2024-01-27T10:13:57;103393.25;;;6.41;100.00
47104;BME280;32853;52.164;5.400;2024-01-27T10:16:39;103227.03;;;5.52;100.00
47104;BME280;32853;52.164;5.400;2024-01-27T10:19:04;103163.41;;;5.26;100.00
47104;BME280;32853;52.164;5.400;2024-01-27T10:21:37;103426.19;;;6.88;100.00
47104;BME280;32853;52.164;5.400;2024-01-27T10:24:03;103172.50;;;5.49;100.00
47104;BME280;32853;52.164;5.400;2024-01-27T10:26:31;103348.38;;;6.52;100.00
47104;BME280;32853;52.164;5.400;2024-01-27T10:28:57;103317.69;;;6.31;100.00
47104;BME280;32853;52.164;5.400;2024-01-27T10:31:33;103331.34;;;6.67;100.00
47104;BME280;32853;52.164;5.400;2024-01-27T10:34:01;103321.72;;;6.63;100.00
47104;BME280;32853;52.164;5.400;2024-01-27T10:36:37;103524.81;;;7.80;100.00
47104;BME280;32853;52.164;5.400;2024-01-27T10:39:14;103525.13;;;8.03;100.00
47104;BME280;32853;52.164;5.400;2024-01-27T10:41:40;103190.81;;;6.04;100.00
47104;BME280;32853;52.164;5.400;2024-01-27T10:44:08;103357.56;;;6.83;100.00
47104;BME280;32853;52.164;5.400;2024-01-27T10:46:37;103543.56;;;8.16;100.00
47104;BME280;32853;52.164;5.400;2024-01-27T10:49:04;103554.97;;;8.23;100.00
47104;BME280;32853;52.164;5.400;2024-01-27T10:51:33;103432.72;;;7.76;100.00
47104;BME280;32853;52.164;5.400;2024-01-27T10:54:03;103347.63;;;7.12;100.00
47104;BME280;32853;52.164;5.400;2024-01-27T10:56:32;103514.44;;;8.48;100.00
47104;BME280;32853;52.164;5.400;2024-01-27T10:58:59;103498.84;;;8.53;100.00
47104;BME280;32853;52.164;5.400;2024-01-27T11:01:24;103502.41;;;8.59;100.00
47104;BME280;32853;52.164;5.400;2024-01-27T11:03:55;103361.63;;;7.86;100.00
47104;BME280;32853;52.164;5.400;2024-01-27T11:06:22;103361.81;;;8.02;100.00
47104;BME280;32853;52.164;5.400;2024-01-27T11:08:49;103459.91;;;8.69;100.00
47104;BME280;32853;52.164;5.400;2024-01-27T11:11:16;103499.25;;;8.89;100.00
47104;BME280;32853;52.164;5.400;2024-01-27T11:13:48;103361.09;;;8.18;100.00
47104;BME280;32853;52.164;5.400;2024-01-27T11:16:25;103376.31;;;8.56;100.00
47104;BME280;32853;52.164;5.400;2024-01-27T11:18:52;103390.34;;;8.74;100.00
47104;BME280;32853;52.164;5.400;2024-01-27T11:21:18;103317.06;;;8.42;100.00
47104;BME280;32853;52.164;5.400;2024-01-27T11:23:44;103423.47;;;8.80;100.00
47104;BME280;32853;52.164;5.400;2024-01-27T11:26:19;103328.19;;;8.31;100.00
47104;BME280;32853;52.164;5.400;2024-01-27T11:28:51;103503.22;;;9.52;100.00
47104;BME280;32853;52.164;5.400;2024-01-27T11:31:23;103518.16;;;9.67;100.00
47104;BME280;32853;52.164;5.400;2024-01-27T11:33:52;103502.47;;;9.66;100.00
47104;BME280;32853;52.164;5.400;2024-01-27T11:36:24;103495.47;;;9.63;100.00
47104;BME280;32853;52.164;5.400;2024-01-27T11:38:51;103177.44;;;7.76;100.00
47104;BME280;32853;52.164;5.400;2024-01-27T11:41:33;103428.88;;;9.01;100.00
47104;BME280;32853;52.164;5.400;2024-01-27T11:44:04;103432.53;;;9.28;100.00
47104;BME280;32853;52.164;5.400;2024-01-27T11:46:30;103479.78;;;9.58;100.00
47104;BME280;32853;52.164;5.400;2024-01-27T11:48:55;103426.38;;;9.15;100.00
47104;BME280;32853;52.164;5.400;2024-01-27T11:51:21;103365.28;;;8.93;100.00
47104;BME280;32853;52.164;5.400;2024-01-27T11:53:48;103287.66;;;8.63;100.00
47104;BME280;32853;52.164;5.400;2024-01-27T11:56:19;103431.00;;;9.57;100.00
47104;BME280;32853;52.164;5.400;2024-01-27T11:58:47;103474.78;;;10.01;100.00
47104;BME280;32853;52.164;5.400;2024-01-27T12:01:17;103319.31;;;9.11;100.00
47104;BME280;32853;52.164;5.400;2024-01-27T12:03:43;103500.03;;;9.96;100.00
47104;BME280;32853;52.164;5.400;2024-01-27T12:06:09;103424.09;;;9.73;100.00
47104;BME280;32853;52.164;5.400;2024-01-27T12:08:42;103267.78;;;8.82;100.00
47104;BME280;32853;52.164;5.400;2024-01-27T12:11:17;103263.50;;;8.90;100.00
47104;BME280;32853;52.164;5.400;2024-01-27T12:13:42;103435.47;;;9.77;100.00
47104;BME280;32853;52.164;5.400;2024-01-27T12:16:08;103466.13;;;10.14;100.00
47104;BME280;32853;52.164;5.400;2024-01-27T12:18:35;103481.94;;;10.33;100.00
47104;BME280;32853;52.164;5.400;2024-01-27T12:21:00;103434.72;;;10.05;98.61
47104;BME280;32853;52.164;5.400;2024-01-27T12:23:26;103480.16;;;10.26;99.41
47104;BME280;32853;52.164;5.400;2024-01-27T12:25:55;103465.22;;;10.08;99.79
47104;BME280;32853;52.164;5.400;2024-01-27T12:28:24;103175.47;;;8.62;100.00
47104;BME280;32853;52.164;5.400;2024-01-27T12:30:55;103462.81;;;10.54;98.16
47104;BME280;32853;52.164;5.400;2024-01-27T12:33:21;103288.25;;;9.82;100.00
47104;BME280;32853;52.164;5.400;2024-01-27T12:35:58;103478.53;;;10.69;96.16
47104;BME280;32853;52.164;5.400;2024-01-27T12:38:26;103475.06;;;10.84;100.00
47104;BME280;32853;52.164;5.400;2024-01-27T12:40:58;103465.47;;;10.87;94.66
47104;BME280;32853;52.164;5.400;2024-01-27T12:43:32;103478.56;;;10.93;98.80
47104;BME280;32853;52.164;5.400;2024-01-27T12:46:05;103304.84;;;9.94;89.92
47104;BME280;32853;52.164;5.400;2024-01-27T12:48:31;103470.72;;;10.92;87.57
47104;BME280;32853;52.164;5.400;2024-01-27T12:50:56;103385.06;;;10.16;88.55
47104;BME280;32853;52.164;5.400;2024-01-27T12:53:25;103289.94;;;9.57;88.42
47104;BME280;32853;52.164;5.400;2024-01-27T12:55:51;103332.75;;;10.01;90.38
47104;BME280;32853;52.164;5.400;2024-01-27T12:58:21;103464.59;;;10.81;91.72
47104;BME280;32853;52.164;5.400;2024-01-27T13:00:58;103455.00;;;10.76;88.36
47104;BME280;32853;52.164;5.400;2024-01-27T13:03:27;103455.88;;;10.89;88.49
47104;BME280;32853;52.164;5.400;2024-01-27T13:05:56;103401.72;;;10.48;89.81
47104;BME280;32853;52.164;5.400;2024-01-27T13:08:24;103462.88;;;10.89;91.23
47104;BME280;32853;52.164;5.400;2024-01-27T13:14:11;103362.47;;;10.35;86.30
47104;BME280;32853;52.164;5.400;2024-01-27T13:16:46;103174.88;;;9.13;86.34
47104;BME280;32853;52.164;5.400;2024-01-27T13:19:12;103447.16;;;10.76;86.33
47104;BME280;32853;52.164;5.400;2024-01-27T13:21:37;103152.16;;;8.89;88.36
47104;BME280;32853;52.164;5.400;2024-01-27T13:24:19;103194.06;;;9.26;88.99
47104;BME280;32853;52.164;5.400;2024-01-27T13:26:51;103108.63;;;8.85;84.14
47104;BME280;32853;52.164;5.400;2024-01-27T13:29:19;103339.72;;;10.18;85.19
47104;BME280;32853;52.164;5.400;2024-01-27T13:31:45;103441.03;;;11.06;86.69
47104;BME280;32853;52.164;5.400;2024-01-27T13:34:14;103261.22;;;9.67;86.98
47104;BME280;32853;52.164;5.400;2024-01-27T13:36:44;103433.16;;;10.84;87.10
47104;BME280;32853;52.164;5.400;2024-01-27T13:39:10;103298.75;;;10.08;87.21
47104;BME280;32853;52.164;5.400;2024-01-27T13:42:06;103422.69;;;10.96;87.64
47104;BME280;32853;52.164;5.400;2024-01-27T13:44:54;103426.22;;;10.89;88.88
47104;BME280;32853;52.164;5.400;2024-01-27T13:47:23;103301.38;;;10.07;88.31
47104;BME280;32853;52.164;5.400;2024-01-27T13:49:48;103108.63;;;8.85;88.48
47104;BME280;32853;52.164;5.400;2024-01-27T13:52:14;103119.13;;;9.00;88.48
47104;BME280;32853;52.164;5.400;2024-01-27T13:54:40;103138.25;;;8.95;89.33
47104;BME280;32853;52.164;5.400;2024-01-27T13:57:05;103283.91;;;9.92;88.99
47104;BME280;32853;52.164;5.400;2024-01-27T13:59:34;103120.00;;;8.99;87.62
47104;BME280;32853;52.164;5.400;2024-01-27T14:02:01;103458.47;;;10.68;90.17
47104;BME280;32853;52.164;5.400;2024-01-27T14:04:34;103427.06;;;10.92;93.10
47104;BME280;32853;52.164;5.400;2024-01-27T14:07:18;103445.38;;;10.85;89.96
47104;BME280;32853;52.164;5.400;2024-01-27T14:09:45;103134.81;;;9.00;88.28
47104;BME280;32853;52.164;5.400;2024-01-27T14:12:18;103111.28;;;8.88;88.71
47104;BME280;32853;52.164;5.400;2024-01-27T14:14:49;103413.06;;;10.44;91.13
47104;BME280;32853;52.164;5.400;2024-01-27T14:17:19;103175.66;;;8.97;93.00
47104;BME280;32853;52.164;5.400;2024-01-27T14:19:47;103255.84;;;9.30;92.85
47104;BME280;32853;52.164;5.400;2024-01-27T14:22:18;103431.41;;;10.58;93.07
47104;BME280;32853;52.164;5.400;2024-01-27T14:24:43;103132.03;;;8.64;91.91
47104;BME280;32853;52.164;5.400;2024-01-27T14:27:10;103091.91;;;8.42;94.28
47104;BME280;32853;52.164;5.400;2024-01-27T14:29:46;103294.28;;;9.55;94.84
47104;BME280;32853;52.164;5.400;2024-01-27T14:32:12;103313.44;;;9.59;96.23
47104;BME280;32853;52.164;5.400;2024-01-27T14:34:38;103125.84;;;8.47;97.06
47104;BME280;32853;52.164;5.400;2024-01-27T14:37:03;103295.19;;;9.68;97.51
47104;BME280;32853;52.164;5.400;2024-01-27T14:39:35;103412.19;;;10.48;98.24
47104;BME280;32853;52.164;5.400;2024-01-27T14:42:02;103086.69;;;8.37;97.01
47104;BME280;32853;52.164;5.400;2024-01-27T14:44:29;103240.00;;;8.90;100.00
47104;BME280;32853;52.164;5.400;2024-01-27T14:47:14;103302.94;;;9.50;98.74
47104;BME280;32853;52.164;5.400;2024-01-27T14:49:42;103429.59;;;10.22;100.00
47104;BME280;32853;52.164;5.400;2024-01-27T14:52:20;103383.28;;;9.98;99.01